This is the latest recevied weather packets stored in our database for station/object KI4BSX. If no packets are shown the sender has not sent any weather packets the latest 10 day(s).
| Time | Temp. | Humidity | Pressure | Rain* | Wind** | Luminosity | Snow |
|---|---|---|---|---|---|---|---|
| 1778153157 | 17.22° C | 99% | 1013.4 hPa | 40.13 mm | - | - | - |
| 1778152853 | 17.22° C | 99% | 1014.1 hPa | 47.5 mm | - | - | - |
| 1778152550 | 17.22° C | 99% | 1013.6 hPa | 45.47 mm | - | - | - |
| 1778152247 | 17.22° C | 99% | 1013.1 hPa | 37.85 mm | - | - | - |
| 1778151943 | 17.22° C | 99% | 1012.6 hPa | 18.54 mm | - | - | - |
| 1778151640 | 17.22° C | 99% | 1012.3 hPa | 16.76 mm | - | - | - |
| 1778151337 | 17.22° C | 99% | 1012.2 hPa | 11.94 mm | - | - | - |
| 1778151033 | 17.22° C | 99% | 1012.5 hPa | 1.78 mm | - | - | - |
| 1778150731 | 17.22° C | 99% | 1012.3 hPa | 1.27 mm | - | - | - |
| 1778150427 | 17.22° C | 99% | 1012.3 hPa | 4.32 mm | - | - | - |
| 1778150123 | 17.22° C | 99% | 1012.2 hPa | 3.05 mm | - | - | - |
| 1778149820 | 17.22° C | 99% | 1012.4 hPa | 1.78 mm | - | - | - |
| 1778149517 | 17.22° C | 99% | 1012.4 hPa | 3.05 mm | - | - | - |
| 1778149213 | 17.22° C | 99% | 1012.4 hPa | 3.05 mm | - | - | - |
| 1778148908 | 17.22° C | 99% | 1012.9 hPa | 1.78 mm | - | - | - |
| 1778148605 | 17.22° C | 99% | 1012.9 hPa | 0 mm | - | - | - |
| 1778148302 | 17.22° C | 99% | 1012.8 hPa | 0 mm | - | - | - |
| 1778148000 | 17.22° C | 99% | 1012.7 hPa | 0 mm | - | - | - |
| 1778147697 | 17.22° C | 99% | 1012.8 hPa | 0 mm | - | - | - |
| 1778147389 | 17.22° C | 99% | 1012.9 hPa | 0 mm | - | - | - |
| 1778147084 | 17.22° C | 99% | 1012.8 hPa | 0 mm | - | - | - |
| 1778146782 | 17.22° C | 99% | 1012.7 hPa | 0 mm | - | - | - |
| 1778146479 | 17.22° C | 99% | 1012.8 hPa | 0 mm | - | - | - |
| 1778146178 | 17.22° C | 99% | 1012.9 hPa | 0 mm | - | - | - |
| 1778145874 | 17.22° C | 99% | 1013.2 hPa | 0 mm | - | - | - |
* Rain latest hour (hover to see other rain measurements)
** Current wind speed in m/s (hover to see current wind gust speed)